< < Back
Terminal Aerodrome Forecast


Current Version              Previous Versions:   1  2  3  4  5  6  7  8  9  

Terminal Aerodrome Forecast

643
FTUS42 KGSP 192300
TAFCLT
TAF
KCLT 192336Z 2000/2024 07008KT P6SM FEW060 SCT120
     FM200300 07006KT P6SM BKN045
     FM200800 05005KT P6SM SCT040 BKN070
     FM201400 04009KT P6SM SCT070=



Latest METAR

049
SAUS70 KWBC 200200 RRE
MTRCLT
METAR KCLT 200152Z 06007KT 10SM SCT049 SCT130 21/15 A3020 RMK AO2 SLP221
T02110150


USA.gov is the U.S. government's official web portal to all federal, state and local government web resources and services.